Arcola, Pennsylvania
Current Conditions -  °F | °C
As of 10:20 AM on Monday 22 Dec 2014 (Local Time) from KPTW Reporting Station
Scattered Clouds Scattered Clouds  
Wind Chill: 31°   Ceiling: Unl
Heat Index: 36°   Visibility: 10mi
Dew Point: 29°   Wind: 6mph
Humidity: 76%   Direction: 60°ENE
Pressure: 30.32"   Gusts: NA
Location:  40.15°N, 75.46°W
Report Text: KPTW 221520Z AUTO 06005KT 10SM SCT023 02/M02 A3032 RMK AO2 T00221017
Loading
Personal Weather Stations






























Interactive Weather Map New forecast layout! Learn more

10-Day Weather Forecast

Advertisements
Track Severe Weather on mobile